sensor_id;sensor_type;location;lat;lon;timestamp;temperature;humidity
22562;DHT22;11447;50.562;8.504;2022-07-18T00:01:14;19.20;54.50
22562;DHT22;11447;50.562;8.504;2022-07-18T00:03:43;19.20;54.60
22562;DHT22;11447;50.562;8.504;2022-07-18T00:06:10;19.10;54.50
22562;DHT22;11447;50.562;8.504;2022-07-18T00:08:36;19.10;54.60
22562;DHT22;11447;50.562;8.504;2022-07-18T00:11:03;19.10;54.60
22562;DHT22;11447;50.562;8.504;2022-07-18T00:13:30;19.10;54.60
22562;DHT22;11447;50.562;8.504;2022-07-18T00:15:57;19.00;54.60
22562;DHT22;11447;50.562;8.504;2022-07-18T00:18:26;19.00;54.80
22562;DHT22;11447;50.562;8.504;2022-07-18T00:20:55;18.90;55.00
22562;DHT22;11447;50.562;8.504;2022-07-18T00:23:22;18.90;55.30
22562;DHT22;11447;50.562;8.504;2022-07-18T00:25:54;18.80;55.40
22562;DHT22;11447;50.562;8.504;2022-07-18T00:28:20;18.70;55.50
22562;DHT22;11447;50.562;8.504;2022-07-18T00:30:51;18.70;55.70
22562;DHT22;11447;50.562;8.504;2022-07-18T00:33:20;18.70;55.60
22562;DHT22;11447;50.562;8.504;2022-07-18T00:35:49;18.60;55.70
22562;DHT22;11447;50.562;8.504;2022-07-18T00:38:16;18.60;56.00
22562;DHT22;11447;50.562;8.504;2022-07-18T00:40:43;18.60;56.00
22562;DHT22;11447;50.562;8.504;2022-07-18T00:43:13;18.50;56.20
22562;DHT22;11447;50.562;8.504;2022-07-18T00:45:44;18.40;56.30
22562;DHT22;11447;50.562;8.504;2022-07-18T00:48:12;18.40;56.90
22562;DHT22;11447;50.562;8.504;2022-07-18T00:50:39;18.30;57.30
22562;DHT22;11447;50.562;8.504;2022-07-18T00:53:09;18.20;57.30
22562;DHT22;11447;50.562;8.504;2022-07-18T00:55:42;18.20;57.70
22562;DHT22;11447;50.562;8.504;2022-07-18T00:58:10;18.10;57.70
22562;DHT22;11447;50.562;8.504;2022-07-18T01:00:40;18.00;57.40
22562;DHT22;11447;50.562;8.504;2022-07-18T01:03:26;18.00;57.70
22562;DHT22;11447;50.562;8.504;2022-07-18T01:05:56;18.00;58.00
22562;DHT22;11447;50.562;8.504;2022-07-18T01:08:25;17.90;58.40
22562;DHT22;11447;50.562;8.504;2022-07-18T01:10:53;17.80;58.30
22562;DHT22;11447;50.562;8.504;2022-07-18T01:13:24;17.90;58.30
22562;DHT22;11447;50.562;8.504;2022-07-18T01:15:54;17.80;58.10
22562;DHT22;11447;50.562;8.504;2022-07-18T01:18:20;17.80;58.20
22562;DHT22;11447;50.562;8.504;2022-07-18T01:20:47;17.80;58.10
22562;DHT22;11447;50.562;8.504;2022-07-18T01:23:14;17.70;58.20
22562;DHT22;11447;50.562;8.504;2022-07-18T01:25:44;17.70;58.20
22562;DHT22;11447;50.562;8.504;2022-07-18T01:28:11;17.70;58.20
22562;DHT22;11447;50.562;8.504;2022-07-18T01:30:38;17.70;58.10
22562;DHT22;11447;50.562;8.504;2022-07-18T01:33:05;17.60;58.30
22562;DHT22;11447;50.562;8.504;2022-07-18T01:35:32;17.60;58.30
22562;DHT22;11447;50.562;8.504;2022-07-18T01:38:00;17.50;58.30
22562;DHT22;11447;50.562;8.504;2022-07-18T01:40:28;17.50;58.40
22562;DHT22;11447;50.562;8.504;2022-07-18T01:42:55;17.40;58.60
22562;DHT22;11447;50.562;8.504;2022-07-18T01:45:27;17.40;58.70
22562;DHT22;11447;50.562;8.504;2022-07-18T01:47:56;17.30;58.60
22562;DHT22;11447;50.562;8.504;2022-07-18T01:50:30;17.30;58.40
22562;DHT22;11447;50.562;8.504;2022-07-18T01:52:57;17.30;58.60
22562;DHT22;11447;50.562;8.504;2022-07-18T01:55:24;17.20;59.40
22562;DHT22;11447;50.562;8.504;2022-07-18T01:57:51;17.30;59.10
22562;DHT22;11447;50.562;8.504;2022-07-18T02:00:17;17.20;59.30
22562;DHT22;11447;50.562;8.504;2022-07-18T02:02:50;17.20;59.70
22562;DHT22;11447;50.562;8.504;2022-07-18T02:05:18;17.10;59.70
22562;DHT22;11447;50.562;8.504;2022-07-18T02:07:45;17.00;59.90
22562;DHT22;11447;50.562;8.504;2022-07-18T02:10:17;17.00;60.10
22562;DHT22;11447;50.562;8.504;2022-07-18T02:12:45;17.00;60.50
22562;DHT22;11447;50.562;8.504;2022-07-18T02:15:15;16.90;60.80
22562;DHT22;11447;50.562;8.504;2022-07-18T02:17:43;16.90;60.90
22562;DHT22;11447;50.562;8.504;2022-07-18T02:20:13;16.80;60.80
22562;DHT22;11447;50.562;8.504;2022-07-18T02:22:41;16.80;61.30
22562;DHT22;11447;50.562;8.504;2022-07-18T02:25:08;16.70;61.70
22562;DHT22;11447;50.562;8.504;2022-07-18T02:27:38;16.70;62.00
22562;DHT22;11447;50.562;8.504;2022-07-18T02:30:06;16.70;62.10
22562;DHT22;11447;50.562;8.504;2022-07-18T02:32:36;16.70;61.90
22562;DHT22;11447;50.562;8.504;2022-07-18T02:35:08;16.70;62.00
22562;DHT22;11447;50.562;8.504;2022-07-18T02:37:35;16.70;62.10
22562;DHT22;11447;50.562;8.504;2022-07-18T02:40:07;16.60;62.10
22562;DHT22;11447;50.562;8.504;2022-07-18T02:42:34;16.60;62.40
22562;DHT22;11447;50.562;8.504;2022-07-18T02:45:02;16.60;62.80
22562;DHT22;11447;50.562;8.504;2022-07-18T02:47:31;16.60;63.00
22562;DHT22;11447;50.562;8.504;2022-07-18T02:49:57;16.60;63.20
22562;DHT22;11447;50.562;8.504;2022-07-18T02:52:24;16.50;63.20
22562;DHT22;11447;50.562;8.504;2022-07-18T02:54:51;16.40;63.20
22562;DHT22;11447;50.562;8.504;2022-07-18T02:57:18;16.50;63.90
22562;DHT22;11447;50.562;8.504;2022-07-18T02:59:44;16.40;64.30
22562;DHT22;11447;50.562;8.504;2022-07-18T03:02:13;16.30;63.70
22562;DHT22;11447;50.562;8.504;2022-07-18T03:04:42;16.30;63.40
22562;DHT22;11447;50.562;8.504;2022-07-18T03:07:09;16.30;63.70
22562;DHT22;11447;50.562;8.504;2022-07-18T03:09:38;16.30;64.00
22562;DHT22;11447;50.562;8.504;2022-07-18T03:12:07;16.20;64.00
22562;DHT22;11447;50.562;8.504;2022-07-18T03:14:37;16.20;64.00
22562;DHT22;11447;50.562;8.504;2022-07-18T03:17:04;16.20;64.20
22562;DHT22;11447;50.562;8.504;2022-07-18T03:19:33;16.20;64.50
22562;DHT22;11447;50.562;8.504;2022-07-18T03:22:03;16.20;64.40
22562;DHT22;11447;50.562;8.504;2022-07-18T03:24:32;16.20;64.40
22562;DHT22;11447;50.562;8.504;2022-07-18T03:27:03;16.10;64.50
22562;DHT22;11447;50.562;8.504;2022-07-18T03:29:32;16.10;65.20
22562;DHT22;11447;50.562;8.504;2022-07-18T03:31:59;16.10;65.60
22562;DHT22;11447;50.562;8.504;2022-07-18T03:34:26;16.00;65.90
22562;DHT22;11447;50.562;8.504;2022-07-18T03:36:53;16.00;66.00
22562;DHT22;11447;50.562;8.504;2022-07-18T03:39:19;16.00;66.30
22562;DHT22;11447;50.562;8.504;2022-07-18T03:41:49;15.90;66.40
22562;DHT22;11447;50.562;8.504;2022-07-18T03:44:15;15.90;66.00
22562;DHT22;11447;50.562;8.504;2022-07-18T03:46:42;15.90;65.70
22562;DHT22;11447;50.562;8.504;2022-07-18T03:49:12;15.90;65.60
22562;DHT22;11447;50.562;8.504;2022-07-18T03:51:38;15.90;65.60
22562;DHT22;11447;50.562;8.504;2022-07-18T03:54:05;15.90;65.50
22562;DHT22;11447;50.562;8.504;2022-07-18T03:56:37;15.80;65.70
22562;DHT22;11447;50.562;8.504;2022-07-18T03:59:04;15.80;66.50
22562;DHT22;11447;50.562;8.504;2022-07-18T04:01:33;15.80;67.00
22562;DHT22;11447;50.562;8.504;2022-07-18T04:04:02;15.70;67.10
22562;DHT22;11447;50.562;8.504;2022-07-18T04:06:29;15.70;67.40
22562;DHT22;11447;50.562;8.504;2022-07-18T04:08:56;15.70;67.10
22562;DHT22;11447;50.562;8.504;2022-07-18T04:11:23;15.70;67.10
22562;DHT22;11447;50.562;8.504;2022-07-18T04:13:54;15.70;67.00
22562;DHT22;11447;50.562;8.504;2022-07-18T04:16:21;15.70;67.10
22562;DHT22;11447;50.562;8.504;2022-07-18T04:18:48;15.70;66.80
22562;DHT22;11447;50.562;8.504;2022-07-18T04:21:16;15.70;66.60
22562;DHT22;11447;50.562;8.504;2022-07-18T04:23:43;15.70;66.20
22562;DHT22;11447;50.562;8.504;2022-07-18T04:26:10;15.70;66.50
22562;DHT22;11447;50.562;8.504;2022-07-18T04:28:39;15.60;66.60
22562;DHT22;11447;50.562;8.504;2022-07-18T04:31:05;15.70;66.90
22562;DHT22;11447;50.562;8.504;2022-07-18T04:33:32;15.60;66.90
22562;DHT22;11447;50.562;8.504;2022-07-18T04:35:59;15.70;67.10
22562;DHT22;11447;50.562;8.504;2022-07-18T04:38:28;15.60;67.50
22562;DHT22;11447;50.562;8.504;2022-07-18T04:41:03;15.60;67.70
22562;DHT22;11447;50.562;8.504;2022-07-18T04:43:33;15.60;68.20
22562;DHT22;11447;50.562;8.504;2022-07-18T04:46:00;15.60;68.10
22562;DHT22;11447;50.562;8.504;2022-07-18T04:48:27;15.60;68.00
22562;DHT22;11447;50.562;8.504;2022-07-18T04:50:56;15.60;67.70
22562;DHT22;11447;50.562;8.504;2022-07-18T04:53:25;15.60;67.30
22562;DHT22;11447;50.562;8.504;2022-07-18T04:55:52;15.70;67.50
22562;DHT22;11447;50.562;8.504;2022-07-18T04:58:21;15.70;68.00
22562;DHT22;11447;50.562;8.504;2022-07-18T05:00:50;15.70;67.80
22562;DHT22;11447;50.562;8.504;2022-07-18T05:03:19;15.70;67.60
22562;DHT22;11447;50.562;8.504;2022-07-18T05:05:46;15.80;67.50
22562;DHT22;11447;50.562;8.504;2022-07-18T05:08:13;15.80;67.20
22562;DHT22;11447;50.562;8.504;2022-07-18T05:10:40;15.90;67.40
22562;DHT22;11447;50.562;8.504;2022-07-18T05:13:07;15.90;67.30
22562;DHT22;11447;50.562;8.504;2022-07-18T05:15:36;15.90;67.30
22562;DHT22;11447;50.562;8.504;2022-07-18T05:18:03;16.00;67.00
22562;DHT22;11447;50.562;8.504;2022-07-18T05:20:30;16.10;67.10
22562;DHT22;11447;50.562;8.504;2022-07-18T05:22:59;16.10;67.10
22562;DHT22;11447;50.562;8.504;2022-07-18T05:25:28;16.20;66.90
22562;DHT22;11447;50.562;8.504;2022-07-18T05:27:55;16.20;66.70
22562;DHT22;11447;50.562;8.504;2022-07-18T05:30:22;16.30;66.80
22562;DHT22;11447;50.562;8.504;2022-07-18T05:32:50;16.40;66.80
22562;DHT22;11447;50.562;8.504;2022-07-18T05:35:18;16.50;66.70
22562;DHT22;11447;50.562;8.504;2022-07-18T05:37:48;16.60;66.30
22562;DHT22;11447;50.562;8.504;2022-07-18T05:40:15;16.70;65.60
22562;DHT22;11447;50.562;8.504;2022-07-18T05:42:42;16.80;65.30
22562;DHT22;11447;50.562;8.504;2022-07-18T05:45:20;17.00;64.80
22562;DHT22;11447;50.562;8.504;2022-07-18T05:47:47;17.10;64.30
22562;DHT22;11447;50.562;8.504;2022-07-18T05:50:13;17.20;63.70
22562;DHT22;11447;50.562;8.504;2022-07-18T05:52:40;17.40;63.20
22562;DHT22;11447;50.562;8.504;2022-07-18T05:55:10;17.50;62.50
22562;DHT22;11447;50.562;8.504;2022-07-18T05:57:36;17.60;62.30
22562;DHT22;11447;50.562;8.504;2022-07-18T06:00:08;17.80;61.60
22562;DHT22;11447;50.562;8.504;2022-07-18T06:02:36;17.90;61.20
22562;DHT22;11447;50.562;8.504;2022-07-18T06:05:05;18.10;60.50
22562;DHT22;11447;50.562;8.504;2022-07-18T06:07:49;18.20;59.90
22562;DHT22;11447;50.562;8.504;2022-07-18T06:10:18;18.30;59.80
22562;DHT22;11447;50.562;8.504;2022-07-18T06:12:45;18.50;59.30
22562;DHT22;11447;50.562;8.504;2022-07-18T06:15:15;18.60;58.30
22562;DHT22;11447;50.562;8.504;2022-07-18T06:17:42;18.90;57.80
22562;DHT22;11447;50.562;8.504;2022-07-18T06:20:10;20.50;57.00
22562;DHT22;11447;50.562;8.504;2022-07-18T06:22:39;23.00;53.70
22562;DHT22;11447;50.562;8.504;2022-07-18T06:25:08;25.10;49.00
22562;DHT22;11447;50.562;8.504;2022-07-18T06:27:37;26.60;46.30
22562;DHT22;11447;50.562;8.504;2022-07-18T06:30:07;27.80;44.40
22562;DHT22;11447;50.562;8.504;2022-07-18T06:32:36;28.70;42.70
22562;DHT22;11447;50.562;8.504;2022-07-18T06:35:03;29.20;40.60
22562;DHT22;11447;50.562;8.504;2022-07-18T06:37:32;29.60;39.10
22562;DHT22;11447;50.562;8.504;2022-07-18T06:39:59;29.70;38.90
22562;DHT22;11447;50.562;8.504;2022-07-18T06:42:29;29.70;38.70
22562;DHT22;11447;50.562;8.504;2022-07-18T06:44:56;29.60;37.80
22562;DHT22;11447;50.562;8.504;2022-07-18T06:47:23;29.20;36.70
22562;DHT22;11447;50.562;8.504;2022-07-18T06:49:52;28.60;36.10
22562;DHT22;11447;50.562;8.504;2022-07-18T06:52:21;28.10;36.60
22562;DHT22;11447;50.562;8.504;2022-07-18T06:54:50;27.50;37.80
22562;DHT22;11447;50.562;8.504;2022-07-18T06:57:17;27.20;38.80
22562;DHT22;11447;50.562;8.504;2022-07-18T06:59:46;27.10;38.30
22562;DHT22;11447;50.562;8.504;2022-07-18T07:02:17;26.70;38.30
22562;DHT22;11447;50.562;8.504;2022-07-18T07:04:46;26.50;39.10
22562;DHT22;11447;50.562;8.504;2022-07-18T07:07:13;26.40;38.60
22562;DHT22;11447;50.562;8.504;2022-07-18T07:09:42;26.00;38.80
22562;DHT22;11447;50.562;8.504;2022-07-18T07:12:09;25.80;39.40
22562;DHT22;11447;50.562;8.504;2022-07-18T07:14:37;25.70;40.20
22562;DHT22;11447;50.562;8.504;2022-07-18T07:17:04;25.50;40.40
22562;DHT22;11447;50.562;8.504;2022-07-18T07:19:33;25.30;40.40
22562;DHT22;11447;50.562;8.504;2022-07-18T07:21:59;25.00;41.10
22562;DHT22;11447;50.562;8.504;2022-07-18T07:24:29;25.00;41.40
22562;DHT22;11447;50.562;8.504;2022-07-18T07:26:55;25.10;41.60
22562;DHT22;11447;50.562;8.504;2022-07-18T07:29:25;25.20;41.60
22562;DHT22;11447;50.562;8.504;2022-07-18T07:31:51;25.20;41.60
22562;DHT22;11447;50.562;8.504;2022-07-18T07:34:20;25.20;41.40
22562;DHT22;11447;50.562;8.504;2022-07-18T07:36:50;25.10;41.80
22562;DHT22;11447;50.562;8.504;2022-07-18T07:39:16;25.00;42.00
22562;DHT22;11447;50.562;8.504;2022-07-18T07:41:43;25.00;42.00
22562;DHT22;11447;50.562;8.504;2022-07-18T07:44:19;25.10;41.60
22562;DHT22;11447;50.562;8.504;2022-07-18T07:46:46;25.20;41.50
22562;DHT22;11447;50.562;8.504;2022-07-18T07:49:15;25.10;41.50
22562;DHT22;11447;50.562;8.504;2022-07-18T07:51:44;25.20;41.80
22562;DHT22;11447;50.562;8.504;2022-07-18T07:54:11;25.30;41.80
22562;DHT22;11447;50.562;8.504;2022-07-18T07:56:38;25.40;41.40
22562;DHT22;11447;50.562;8.504;2022-07-18T07:59:04;25.70;41.40
22562;DHT22;11447;50.562;8.504;2022-07-18T08:01:31;25.90;40.90
22562;DHT22;11447;50.562;8.504;2022-07-18T08:04:01;26.00;40.50
22562;DHT22;11447;50.562;8.504;2022-07-18T08:06:28;26.10;40.10
22562;DHT22;11447;50.562;8.504;2022-07-18T08:08:57;26.20;38.10
22562;DHT22;11447;50.562;8.504;2022-07-18T08:11:25;26.30;38.00
22562;DHT22;11447;50.562;8.504;2022-07-18T08:13:54;26.30;37.00
22562;DHT22;11447;50.562;8.504;2022-07-18T08:16:21;26.30;38.20
22562;DHT22;11447;50.562;8.504;2022-07-18T08:18:50;26.40;37.10
22562;DHT22;11447;50.562;8.504;2022-07-18T08:21:17;26.40;36.80
22562;DHT22;11447;50.562;8.504;2022-07-18T08:23:46;26.40;36.80
22562;DHT22;11447;50.562;8.504;2022-07-18T08:26:17;26.40;36.90
22562;DHT22;11447;50.562;8.504;2022-07-18T08:28:43;26.50;36.70
22562;DHT22;11447;50.562;8.504;2022-07-18T08:31:10;26.50;36.90
22562;DHT22;11447;50.562;8.504;2022-07-18T08:33:37;26.60;36.80
22562;DHT22;11447;50.562;8.504;2022-07-18T08:36:04;26.80;37.60
22562;DHT22;11447;50.562;8.504;2022-07-18T08:38:31;26.90;36.50
22562;DHT22;11447;50.562;8.504;2022-07-18T08:41:00;27.00;36.20
22562;DHT22;11447;50.562;8.504;2022-07-18T08:43:27;27.00;36.00
22562;DHT22;11447;50.562;8.504;2022-07-18T08:45:59;27.10;36.50
22562;DHT22;11447;50.562;8.504;2022-07-18T08:48:28;27.30;36.80
22562;DHT22;11447;50.562;8.504;2022-07-18T08:50:55;27.40;36.00
22562;DHT22;11447;50.562;8.504;2022-07-18T08:53:21;27.40;34.70
22562;DHT22;11447;50.562;8.504;2022-07-18T08:55:48;27.40;34.70
22562;DHT22;11447;50.562;8.504;2022-07-18T08:58:16;27.40;35.30
22562;DHT22;11447;50.562;8.504;2022-07-18T09:01:04;27.50;35.20
22562;DHT22;11447;50.562;8.504;2022-07-18T09:03:31;27.60;34.60
22562;DHT22;11447;50.562;8.504;2022-07-18T09:06:09;27.60;34.90
22562;DHT22;11447;50.562;8.504;2022-07-18T09:08:40;27.50;35.20
22562;DHT22;11447;50.562;8.504;2022-07-18T09:11:22;27.60;34.90
22562;DHT22;11447;50.562;8.504;2022-07-18T09:19:30;27.80;34.60
22562;DHT22;11447;50.562;8.504;2022-07-18T09:27:24;27.90;35.30
22562;DHT22;11447;50.562;8.504;2022-07-18T09:32:32;27.90;35.10
22562;DHT22;11447;50.562;8.504;2022-07-18T09:35:08;27.90;35.20
22562;DHT22;11447;50.562;8.504;2022-07-18T09:37:35;27.90;35.80
22562;DHT22;11447;50.562;8.504;2022-07-18T09:42:57;28.10;35.50
22562;DHT22;11447;50.562;8.504;2022-07-18T09:45:29;28.00;35.70
22562;DHT22;11447;50.562;8.504;2022-07-18T09:48:02;28.10;35.70
22562;DHT22;11447;50.562;8.504;2022-07-18T09:50:39;28.10;35.10
22562;DHT22;11447;50.562;8.504;2022-07-18T09:53:14;28.20;34.70
22562;DHT22;11447;50.562;8.504;2022-07-18T09:56:02;28.20;34.60
22562;DHT22;11447;50.562;8.504;2022-07-18T09:58:42;28.20;34.80
22562;DHT22;11447;50.562;8.504;2022-07-18T10:01:17;28.40;34.80
22562;DHT22;11447;50.562;8.504;2022-07-18T10:03:44;28.30;34.20
22562;DHT22;11447;50.562;8.504;2022-07-18T10:06:11;28.40;34.10
22562;DHT22;11447;50.562;8.504;2022-07-18T10:08:40;28.40;33.80
22562;DHT22;11447;50.562;8.504;2022-07-18T10:11:07;28.40;33.50
22562;DHT22;11447;50.562;8.504;2022-07-18T10:13:35;28.50;34.10
22562;DHT22;11447;50.562;8.504;2022-07-18T10:16:04;28.50;34.00
22562;DHT22;11447;50.562;8.504;2022-07-18T10:18:33;28.50;33.00
22562;DHT22;11447;50.562;8.504;2022-07-18T10:31:34;28.70;33.00
22562;DHT22;11447;50.562;8.504;2022-07-18T10:36:41;28.80;33.20
22562;DHT22;11447;50.562;8.504;2022-07-18T10:39:37;28.80;33.30
22562;DHT22;11447;50.562;8.504;2022-07-18T10:44:35;28.90;31.30
22562;DHT22;11447;50.562;8.504;2022-07-18T10:47:11;28.90;32.50
22562;DHT22;11447;50.562;8.504;2022-07-18T11:00:37;29.10;31.70
22562;DHT22;11447;50.562;8.504;2022-07-18T11:03:08;29.20;31.80
22562;DHT22;11447;50.562;8.504;2022-07-18T11:05:49;29.20;32.10
22562;DHT22;11447;50.562;8.504;2022-07-18T11:08:20;29.20;31.60
22562;DHT22;11447;50.562;8.504;2022-07-18T11:16:02;29.30;30.10
22562;DHT22;11447;50.562;8.504;2022-07-18T11:26:26;29.50;31.80
22562;DHT22;11447;50.562;8.504;2022-07-18T11:29:06;29.50;31.20
22562;DHT22;11447;50.562;8.504;2022-07-18T11:34:19;29.60;30.30
22562;DHT22;11447;50.562;8.504;2022-07-18T11:37:02;29.60;29.40
22562;DHT22;11447;50.562;8.504;2022-07-18T11:39:33;29.60;31.00
22562;DHT22;11447;50.562;8.504;2022-07-18T11:42:03;29.60;30.90
22562;DHT22;11447;50.562;8.504;2022-07-18T11:44:30;29.70;30.60
22562;DHT22;11447;50.562;8.504;2022-07-18T11:47:05;29.80;30.00
22562;DHT22;11447;50.562;8.504;2022-07-18T11:49:35;29.80;30.30
22562;DHT22;11447;50.562;8.504;2022-07-18T11:52:02;29.90;30.20
22562;DHT22;11447;50.562;8.504;2022-07-18T11:54:29;29.90;30.70
22562;DHT22;11447;50.562;8.504;2022-07-18T11:56:58;29.90;30.00
22562;DHT22;11447;50.562;8.504;2022-07-18T11:59:38;30.00;29.60
22562;DHT22;11447;50.562;8.504;2022-07-18T12:02:05;30.10;29.00
22562;DHT22;11447;50.562;8.504;2022-07-18T12:04:32;30.10;29.60
22562;DHT22;11447;50.562;8.504;2022-07-18T12:07:31;30.20;29.20
22562;DHT22;11447;50.562;8.504;2022-07-18T12:10:15;30.30;28.40
22562;DHT22;11447;50.562;8.504;2022-07-18T12:12:46;30.30;29.30
22562;DHT22;11447;50.562;8.504;2022-07-18T12:15:13;30.30;29.60
22562;DHT22;11447;50.562;8.504;2022-07-18T12:17:45;30.30;29.20
22562;DHT22;11447;50.562;8.504;2022-07-18T12:20:21;30.40;29.00
22562;DHT22;11447;50.562;8.504;2022-07-18T12:25:40;30.50;28.50
22562;DHT22;11447;50.562;8.504;2022-07-18T12:30:40;30.50;29.20
22562;DHT22;11447;50.562;8.504;2022-07-18T12:33:08;30.60;29.00
22562;DHT22;11447;50.562;8.504;2022-07-18T12:35:36;30.60;28.50
22562;DHT22;11447;50.562;8.504;2022-07-18T12:38:12;30.70;28.80
22562;DHT22;11447;50.562;8.504;2022-07-18T12:43:27;30.80;28.00
22562;DHT22;11447;50.562;8.504;2022-07-18T12:45:57;30.90;27.90
22562;DHT22;11447;50.562;8.504;2022-07-18T12:48:30;30.90;28.20
22562;DHT22;11447;50.562;8.504;2022-07-18T12:51:07;30.90;29.10
22562;DHT22;11447;50.562;8.504;2022-07-18T12:53:36;30.90;28.70
22562;DHT22;11447;50.562;8.504;2022-07-18T12:56:06;30.90;29.10
22562;DHT22;11447;50.562;8.504;2022-07-18T12:58:32;30.90;29.20
22562;DHT22;11447;50.562;8.504;2022-07-18T13:00:59;31.00;28.40
22562;DHT22;11447;50.562;8.504;2022-07-18T13:03:33;31.00;28.80
22562;DHT22;11447;50.562;8.504;2022-07-18T13:06:00;31.00;28.90
22562;DHT22;11447;50.562;8.504;2022-07-18T13:08:27;31.00;29.30
22562;DHT22;11447;50.562;8.504;2022-07-18T13:10:54;31.00;29.40
22562;DHT22;11447;50.562;8.504;2022-07-18T13:13:21;31.00;28.90
22562;DHT22;11447;50.562;8.504;2022-07-18T13:15:50;31.00;28.80
22562;DHT22;11447;50.562;8.504;2022-07-18T13:18:22;31.00;29.00
22562;DHT22;11447;50.562;8.504;2022-07-18T13:20:49;31.00;29.00
22562;DHT22;11447;50.562;8.504;2022-07-18T13:23:18;31.10;27.90
22562;DHT22;11447;50.562;8.504;2022-07-18T13:25:45;31.20;28.40
22562;DHT22;11447;50.562;8.504;2022-07-18T13:28:12;31.30;28.10
22562;DHT22;11447;50.562;8.504;2022-07-18T13:30:39;31.30;28.90
22562;DHT22;11447;50.562;8.504;2022-07-18T13:33:09;31.30;28.00
22562;DHT22;11447;50.562;8.504;2022-07-18T13:35:35;31.30;28.00
22562;DHT22;11447;50.562;8.504;2022-07-18T13:38:02;31.50;28.00
22562;DHT22;11447;50.562;8.504;2022-07-18T13:40:29;31.50;28.30
22562;DHT22;11447;50.562;8.504;2022-07-18T13:42:57;31.50;28.50
22562;DHT22;11447;50.562;8.504;2022-07-18T13:45:24;31.40;28.50
22562;DHT22;11447;50.562;8.504;2022-07-18T13:47:53;31.50;28.00
22562;DHT22;11447;50.562;8.504;2022-07-18T13:50:20;31.50;27.90
22562;DHT22;11447;50.562;8.504;2022-07-18T13:52:51;31.60;28.00
22562;DHT22;11447;50.562;8.504;2022-07-18T13:55:18;31.70;27.50
22562;DHT22;11447;50.562;8.504;2022-07-18T13:57:47;31.80;27.80
22562;DHT22;11447;50.562;8.504;2022-07-18T14:00:14;31.70;27.70
22562;DHT22;11447;50.562;8.504;2022-07-18T14:02:41;31.70;28.50
22562;DHT22;11447;50.562;8.504;2022-07-18T14:05:08;31.70;28.40
22562;DHT22;11447;50.562;8.504;2022-07-18T14:07:41;31.70;28.80
22562;DHT22;11447;50.562;8.504;2022-07-18T14:10:09;31.60;29.00
22562;DHT22;11447;50.562;8.504;2022-07-18T14:12:38;31.60;28.20
22562;DHT22;11447;50.562;8.504;2022-07-18T14:15:06;31.70;28.60
22562;DHT22;11447;50.562;8.504;2022-07-18T14:17:33;31.70;28.30
22562;DHT22;11447;50.562;8.504;2022-07-18T14:20:00;31.90;28.00
22562;DHT22;11447;50.562;8.504;2022-07-18T14:22:27;31.90;28.30
22562;DHT22;11447;50.562;8.504;2022-07-18T14:24:56;31.90;27.40
22562;DHT22;11447;50.562;8.504;2022-07-18T14:27:25;31.90;27.70
22562;DHT22;11447;50.562;8.504;2022-07-18T14:29:55;31.90;27.80
22562;DHT22;11447;50.562;8.504;2022-07-18T14:32:28;32.00;27.50
22562;DHT22;11447;50.562;8.504;2022-07-18T14:34:57;32.10;27.60
22562;DHT22;11447;50.562;8.504;2022-07-18T14:37:26;32.10;27.00
22562;DHT22;11447;50.562;8.504;2022-07-18T14:39:55;32.20;27.20
22562;DHT22;11447;50.562;8.504;2022-07-18T14:42:23;32.20;27.80
22562;DHT22;11447;50.562;8.504;2022-07-18T14:44:53;32.20;28.20
22562;DHT22;11447;50.562;8.504;2022-07-18T14:47:23;32.10;28.30
22562;DHT22;11447;50.562;8.504;2022-07-18T14:49:52;32.10;28.40
22562;DHT22;11447;50.562;8.504;2022-07-18T14:52:22;32.10;28.50
22562;DHT22;11447;50.562;8.504;2022-07-18T14:54:48;32.10;28.60
22562;DHT22;11447;50.562;8.504;2022-07-18T14:57:18;32.10;28.60
22562;DHT22;11447;50.562;8.504;2022-07-18T14:59:48;32.00;28.30
22562;DHT22;11447;50.562;8.504;2022-07-18T15:02:15;32.10;28.40
22562;DHT22;11447;50.562;8.504;2022-07-18T15:04:42;32.00;28.30
22562;DHT22;11447;50.562;8.504;2022-07-18T15:07:12;32.00;28.10
22562;DHT22;11447;50.562;8.504;2022-07-18T15:09:39;32.10;28.10
22562;DHT22;11447;50.562;8.504;2022-07-18T15:12:07;32.10;28.30
22562;DHT22;11447;50.562;8.504;2022-07-18T15:14:36;32.10;28.00
22562;DHT22;11447;50.562;8.504;2022-07-18T15:17:03;32.10;27.90
22562;DHT22;11447;50.562;8.504;2022-07-18T15:19:30;32.10;28.00
22562;DHT22;11447;50.562;8.504;2022-07-18T15:21:57;32.20;28.00
22562;DHT22;11447;50.562;8.504;2022-07-18T15:24:24;32.30;28.10
22562;DHT22;11447;50.562;8.504;2022-07-18T15:26:55;32.30;27.90
22562;DHT22;11447;50.562;8.504;2022-07-18T15:29:26;32.30;28.20
22562;DHT22;11447;50.562;8.504;2022-07-18T15:31:55;32.30;28.00
22562;DHT22;11447;50.562;8.504;2022-07-18T15:34:27;32.30;27.90
22562;DHT22;11447;50.562;8.504;2022-07-18T15:36:56;32.30;28.30
22562;DHT22;11447;50.562;8.504;2022-07-18T15:39:25;32.30;28.20
22562;DHT22;11447;50.562;8.504;2022-07-18T15:41:52;32.30;27.80
22562;DHT22;11447;50.562;8.504;2022-07-18T15:44:21;32.30;28.20
22562;DHT22;11447;50.562;8.504;2022-07-18T15:46:48;32.30;28.50
22562;DHT22;11447;50.562;8.504;2022-07-18T15:49:15;32.30;28.30
22562;DHT22;11447;50.562;8.504;2022-07-18T15:51:42;32.30;28.20
22562;DHT22;11447;50.562;8.504;2022-07-18T15:54:13;32.30;28.20
22562;DHT22;11447;50.562;8.504;2022-07-18T15:56:44;32.30;27.80
22562;DHT22;11447;50.562;8.504;2022-07-18T15:59:13;32.30;28.10
22562;DHT22;11447;50.562;8.504;2022-07-18T16:01:40;32.30;28.00
22562;DHT22;11447;50.562;8.504;2022-07-18T16:04:11;32.30;28.30
22562;DHT22;11447;50.562;8.504;2022-07-18T16:06:37;32.20;27.50
22562;DHT22;11447;50.562;8.504;2022-07-18T16:09:07;32.30;28.00
22562;DHT22;11447;50.562;8.504;2022-07-18T16:11:36;32.20;27.80
22562;DHT22;11447;50.562;8.504;2022-07-18T16:14:08;32.20;28.40
22562;DHT22;11447;50.562;8.504;2022-07-18T16:16:40;32.20;28.10
22562;DHT22;11447;50.562;8.504;2022-07-18T16:19:08;32.10;28.00
22562;DHT22;11447;50.562;8.504;2022-07-18T16:21:38;32.10;28.40
22562;DHT22;11447;50.562;8.504;2022-07-18T16:24:07;32.10;28.20
22562;DHT22;11447;50.562;8.504;2022-07-18T16:26:39;32.10;28.10
22562;DHT22;11447;50.562;8.504;2022-07-18T16:29:06;32.10;28.40
22562;DHT22;11447;50.562;8.504;2022-07-18T16:31:35;32.00;27.30
22562;DHT22;11447;50.562;8.504;2022-07-18T16:34:03;32.10;27.80
22562;DHT22;11447;50.562;8.504;2022-07-18T16:36:30;32.00;27.40
22562;DHT22;11447;50.562;8.504;2022-07-18T16:39:01;32.10;27.60
22562;DHT22;11447;50.562;8.504;2022-07-18T16:41:28;32.10;27.80
22562;DHT22;11447;50.562;8.504;2022-07-18T16:43:58;32.10;27.80
22562;DHT22;11447;50.562;8.504;2022-07-18T16:46:25;32.00;27.70
22562;DHT22;11447;50.562;8.504;2022-07-18T16:48:52;32.10;27.50